Time;durP1;ratioP1;P1;durP2;ratioP2;P2;SDS_P1;SDS_P2;PMS_P1;PMS_P2;Temp;Humidity;BMP_temperature;BMP_pressure;BME280_temperature;BME280_humidity;BME280_pressure;Samples;Min_cycle;Max_cycle;Signal;HPM_P1;HPM_P2
2023/07/29 00:00:32;;;;;;;13.23;8.90;;;;;;;25.64;97.20;100026.22;5086685;28;20098;-59
2023/07/29 00:03:03;;;;;;;13.43;8.83;;;;;;;25.67;96.09;100025.94;5058759;28;20495;-57
2023/07/29 00:05:33;;;;;;;17.37;8.47;;;;;;;25.74;95.35;100032.50;5067372;28;20044;-59
2023/07/29 00:08:04;;;;;;;16.10;7.93;;;;;;;25.82;94.60;100030.03;5057821;28;20105;-59
2023/07/29 00:10:38;;;;;;;17.30;8.37;;;;;;;25.95;94.40;100029.03;5074972;28;20074;-58
2023/07/29 00:13:09;;;;;;;14.10;7.90;;;;;;;25.92;93.32;100014.06;5076308;28;20510;-58
2023/07/29 00:15:40;;;;;;;13.53;8.00;;;;;;;26.07;93.81;100027.97;5086208;28;20039;-60
2023/07/29 00:18:11;;;;;;;11.97;7.67;;;;;;;26.18;94.25;100030.56;5076304;28;20315;-59
2023/07/29 00:20:42;;;;;;;14.03;7.20;;;;;;;26.32;92.87;100025.88;5086924;28;20138;-59
2023/07/29 00:23:12;;;;;;;10.60;6.53;;;;;;;26.37;91.37;100029.03;5063666;28;20044;-58
2023/07/29 00:25:44;;;;;;;10.67;6.70;;;;;;;26.45;90.27;100031.88;5066402;28;20439;-58
2023/07/29 00:28:15;;;;;;;15.70;6.93;;;;;;;26.52;90.68;100021.47;5066045;28;20052;-59
2023/07/29 00:30:47;;;;;;;13.97;6.57;;;;;;;26.61;90.52;100026.94;5069667;28;20047;-59
2023/07/29 00:33:17;;;;;;;9.97;7.23;;;;;;;26.64;90.23;100013.25;5100973;28;20039;-60
2023/07/29 00:35:48;;;;;;;12.33;6.10;;;;;;;26.78;89.90;100022.75;5115769;28;20035;-58
2023/07/29 00:38:19;;;;;;;9.50;6.50;;;;;;;26.82;88.70;100001.91;5095155;28;20061;-58
2023/07/29 00:40:52;;;;;;;8.53;6.43;;;;;;;26.94;89.24;100011.53;5084441;28;20051;-59
2023/07/29 00:43:23;;;;;;;11.60;6.17;;;;;;;27.02;87.86;100018.88;5094097;28;20050;-59
2023/07/29 00:45:54;;;;;;;10.77;6.20;;;;;;;27.08;87.81;100018.31;5084953;28;20051;-60
2023/07/29 00:48:24;;;;;;;10.50;6.10;;;;;;;27.03;86.69;100026.81;5115134;28;20043;-61
2023/07/29 00:50:56;;;;;;;10.70;6.80;;;;;;;27.04;86.86;100017.75;5083444;28;20050;-61
2023/07/29 00:53:27;;;;;;;9.97;6.20;;;;;;;26.97;86.47;100021.97;5094260;28;20074;-60
2023/07/29 00:55:59;;;;;;;10.57;6.10;;;;;;;26.82;87.00;100023.34;5082619;28;20067;-60
2023/07/29 00:58:30;;;;;;;7.50;5.57;;;;;;;26.78;87.55;100017.38;5103180;28;20043;-61
2023/07/29 01:01:01;;;;;;;11.97;5.60;;;;;;;26.78;87.09;100011.19;5081159;28;20075;-59
2023/07/29 01:03:31;;;;;;;9.90;6.43;;;;;;;26.71;87.51;100010.03;5093638;28;20465;-60
2023/07/29 01:06:15;;;;;;;10.03;6.57;;;;;;;26.63;88.05;100003.53;5082551;28;20039;-60
2023/07/29 01:08:53;;;;;;;19.93;6.80;;;;;;;26.56;88.14;100002.38;5093122;28;20035;-59
2023/07/29 01:11:35;;;;;;;12.95;5.88;;;;;;;26.59;88.25;100015.50;5092429;28;20043;-60
2023/07/29 01:14:27;;;;;;;10.27;6.30;;;;;;;26.56;89.12;100013.09;5081506;28;20438;-59
2023/07/29 01:17:02;;;;;;;13.27;6.07;;;;;;;26.49;89.22;100005.69;5083049;28;20358;-60
2023/07/29 01:19:52;;;;;;;13.43;5.93;;;;;;;26.43;90.63;100012.41;5115122;28;20087;-59
2023/07/29 01:22:25;;;;;;;11.07;5.50;;;;;;;26.21;90.06;99975.94;5081852;28;20048;-58
2023/07/29 01:24:57;;;;;;;10.83;6.00;;;;;;;26.35;90.18;100005.03;5081715;28;20047;-59
2023/07/29 01:27:28;;;;;;;12.60;6.00;;;;;;;26.32;90.43;99993.75;5093173;28;20373;-59
2023/07/29 01:29:59;;;;;;;9.67;5.73;;;;;;;26.36;90.86;99997.84;5092290;28;20042;-60
2023/07/29 01:32:39;;;;;;;9.07;5.70;;;;;;;26.42;91.42;99989.28;5091775;28;20043;-58
2023/07/29 01:35:20;;;;;;;11.87;5.27;;;;;;;26.44;90.41;99982.81;5081153;28;20046;-58
2023/07/29 01:37:57;;;;;;;11.63;5.43;;;;;;;26.35;90.08;99978.25;5082630;28;20100;-59
2023/07/29 01:40:29;;;;;;;12.03;5.33;;;;;;;26.20;90.47;99975.06;5103578;28;20134;-59
2023/07/29 01:43:01;;;;;;;11.63;5.40;;;;;;;26.18;91.57;99981.53;5091809;28;20100;-59
2023/07/29 01:45:36;;;;;;;13.27;4.87;;;;;;;26.14;91.54;99983.66;5092984;28;20039;-58
2023/07/29 01:48:07;;;;;;;11.63;5.87;;;;;;;26.19;92.63;99977.91;5082764;28;20135;-59
2023/07/29 01:50:37;;;;;;;9.77;5.40;;;;;;;26.22;92.27;99978.47;5093611;28;20039;-59
2023/07/29 01:53:08;;;;;;;8.80;5.33;;;;;;;26.30;91.91;99969.75;5100778;28;20040;-58
2023/07/29 01:55:41;;;;;;;11.97;5.53;;;;;;;26.40;92.10;99949.22;5083202;28;20541;-59
2023/07/29 01:58:11;;;;;;;7.60;5.23;;;;;;;26.60;90.67;99958.22;5063586;28;20049;-57
2023/07/29 02:00:42;;;;;;;7.40;4.63;;;;;;;26.76;89.34;99948.81;5065716;28;20047;-61
2023/07/29 02:03:13;;;;;;;9.63;5.00;;;;;;;26.98;88.40;99953.09;5073256;28;20166;-58
2023/07/29 02:05:44;;;;;;;10.10;5.20;;;;;;;27.29;88.25;99956.56;5080885;28;20132;-60
2023/07/29 02:08:14;;;;;;;7.63;4.70;;;;;;;27.64;86.07;99939.06;5078960;28;20104;-60
2023/07/29 02:10:48;;;;;;;6.97;4.87;;;;;;;27.93;84.49;99945.28;5059926;28;20264;-61
2023/07/29 02:13:19;;;;;;;6.63;4.70;;;;;;;28.22;83.34;99949.69;5068057;28;20083;-59
2023/07/29 02:15:49;;;;;;;7.10;5.10;;;;;;;28.34;81.73;99948.53;5058616;28;20058;-61
2023/07/29 02:18:20;;;;;;;14.53;4.83;;;;;;;28.62;81.96;99953.97;5069694;28;20158;-58
2023/07/29 02:20:51;;;;;;;8.43;4.50;;;;;;;28.96;80.98;99945.28;5059872;28;20408;-61
2023/07/29 02:23:21;;;;;;;9.90;5.10;;;;;;;29.21;78.86;99946.41;5068699;28;20063;-60
2023/07/29 02:25:54;;;;;;;9.00;4.83;;;;;;;29.10;77.76;99939.41;5059699;28;20056;-59
2023/07/29 02:28:24;;;;;;;7.93;4.93;;;;;;;28.98;77.36;99940.56;5069686;28;20059;-59
2023/07/29 02:31:16;;;;;;;7.67;4.33;;;;;;;28.73;77.55;99948.41;5058939;28;20531;-60
2023/07/29 02:33:46;;;;;;;8.53;4.80;;;;;;;28.61;78.37;99946.91;5058820;28;20110;-62
2023/07/29 02:36:17;;;;;;;9.53;5.00;;;;;;;28.56;79.29;99935.75;5070269;28;20059;-60
2023/07/29 02:38:48;;;;;;;11.00;4.90;;;;;;;28.52;79.60;99928.97;5059345;28;20112;-61
2023/07/29 02:41:20;;;;;;;8.03;4.90;;;;;;;28.57;79.50;99932.06;5070536;28;20053;-61
2023/07/29 02:43:51;;;;;;;10.97;4.33;;;;;;;28.39;78.95;99914.00;5059543;28;20545;-60
2023/07/29 02:46:22;;;;;;;8.70;3.77;;;;;;;28.52;79.46;99928.97;5071041;28;20250;-59
2023/07/29 02:48:52;;;;;;;6.77;4.30;;;;;;;28.54;79.34;99918.91;5059708;28;20085;-60
2023/07/29 02:51:23;;;;;;;11.13;4.40;;;;;;;28.53;79.30;99925.28;5070008;28;20146;-61
2023/07/29 02:53:54;;;;;;;6.47;3.60;;;;;;;28.50;79.67;99917.50;5058711;28;20097;-60
2023/07/29 02:56:27;;;;;;;6.97;3.80;;;;;;;28.46;79.63;99929.56;5070644;28;20612;-59
2023/07/29 02:58:57;;;;;;;12.13;4.07;;;;;;;28.32;79.29;99928.19;5063908;28;20143;-59
2023/07/29 03:01:33;;;;;;;6.87;4.07;;;;;;;28.08;79.32;99928.66;5072887;28;20446;-58
2023/07/29 03:04:04;;;;;;;7.77;3.93;;;;;;;27.80;81.00;99933.94;5060095;28;20062;-58
2023/07/29 03:06:35;;;;;;;5.50;4.20;;;;;;;27.66;81.69;99942.47;5074333;28;20134;-58
2023/07/29 03:09:06;;;;;;;14.97;4.40;;;;;;;27.63;82.51;99931.97;5065083;28;20532;-58
2023/07/29 03:11:38;;;;;;;9.77;4.10;;;;;;;27.82;82.85;99941.91;5073430;28;20407;-58
2023/07/29 03:14:08;;;;;;;7.67;3.90;;;;;;;28.06;82.27;99944.13;5063833;28;20052;-58
2023/07/29 03:16:39;;;;;;;13.67;4.00;;;;;;;28.28;82.21;99933.00;5074036;28;20056;-58
2023/07/29 03:19:10;;;;;;;9.20;3.70;;;;;;;28.43;80.73;99935.19;5062160;28;20641;-58
2023/07/29 03:21:41;;;;;;;8.80;3.63;;;;;;;28.45;80.05;99926.03;5073058;28;20048;-59
2023/07/29 03:24:11;;;;;;;6.63;3.67;;;;;;;28.29;80.26;99934.69;5063126;28;20117;-59
2023/07/29 03:26:43;;;;;;;5.00;3.47;;;;;;;28.19;80.40;99936.56;5074187;28;20462;-57
2023/07/29 03:29:15;;;;;;;12.17;4.07;;;;;;;28.09;79.89;99931.22;5062463;28;20048;-60
2023/07/29 03:31:45;;;;;;;8.37;4.17;;;;;;;28.08;81.04;99921.50;5062825;28;20092;-59
2023/07/29 03:34:16;;;;;;;7.60;3.87;;;;;;;28.08;81.29;99926.00;5074309;28;20373;-59
2023/07/29 03:36:47;;;;;;;8.07;4.13;;;;;;;28.12;81.18;99922.03;5062098;28;20486;-59
2023/07/29 03:39:18;;;;;;;7.87;4.13;;;;;;;28.20;81.06;99924.81;5074295;28;20412;-59
2023/07/29 03:41:50;;;;;;;7.60;4.20;;;;;;;28.17;81.55;99925.13;5063334;28;20055;-60
2023/07/29 03:44:21;;;;;;;7.47;3.93;;;;;;;28.08;81.28;99937.59;5072816;28;20139;-60
2023/07/29 03:46:51;;;;;;;7.70;3.73;;;;;;;27.93;82.25;99934.53;5061703;28;20134;-61
2023/07/29 03:49:22;;;;;;;7.10;4.20;;;;;;;27.79;82.78;99932.25;5073222;28;20476;-61
2023/07/29 03:51:53;;;;;;;11.47;4.00;;;;;;;27.62;83.28;99924.94;5062294;28;20043;-60
2023/07/29 03:54:23;;;;;;;8.80;4.50;;;;;;;27.53;83.65;99919.44;5073779;28;20118;-60
2023/07/29 03:56:55;;;;;;;8.40;3.90;;;;;;;27.43;84.47;99915.94;5061665;28;20512;-60
2023/07/29 03:59:26;;;;;;;8.97;4.37;;;;;;;27.43;84.42;99921.28;5072650;28;20063;-59
2023/07/29 04:01:56;;;;;;;7.33;4.10;;;;;;;27.45;84.52;99919.28;5061979;28;20056;-61
2023/07/29 04:04:27;;;;;;;12.73;4.40;;;;;;;27.43;85.00;99918.59;5073156;28;20051;-59
2023/07/29 04:06:58;;;;;;;8.47;3.97;;;;;;;27.44;85.29;99922.13;5062807;28;20048;-60
2023/07/29 04:09:28;;;;;;;7.80;4.10;;;;;;;27.35;85.55;99915.75;5072100;28;20142;-59
2023/07/29 04:12:00;;;;;;;7.20;4.27;;;;;;;27.28;85.78;99917.31;5061939;28;20036;-59
2023/07/29 04:14:31;;;;;;;7.60;4.30;;;;;;;27.14;86.22;99915.03;5073409;28;20850;-60
2023/07/29 04:17:03;;;;;;;7.40;4.43;;;;;;;27.06;87.10;99919.25;5062148;28;20121;-60
2023/07/29 04:19:34;;;;;;;8.43;4.70;;;;;;;27.03;88.07;99913.31;5072653;28;20052;-60
2023/07/29 04:22:05;;;;;;;6.87;4.67;;;;;;;26.93;87.91;99907.09;5061752;28;20052;-58
2023/07/29 04:24:37;;;;;;;10.40;4.90;;;;;;;26.79;88.74;99905.69;5072369;28;20058;-60
2023/07/29 04:27:10;;;;;;;5.00;4.50;;;;;;;26.78;89.16;99909.31;5060308;28;20047;-59
2023/07/29 04:29:40;;;;;;;15.33;5.17;;;;;;;26.80;89.08;99915.41;5072788;28;20048;-58
2023/07/29 04:32:11;;;;;;;32.13;11.37;;;;;;;26.12;78.51;99910.63;5062469;28;20147;-58
2023/07/29 04:34:41;;;;;;;30.07;11.67;;;;;;;25.09;81.78;99929.97;5072864;28;20051;-58
2023/07/29 04:37:12;;;;;;;28.60;11.87;;;;;;;24.73;85.15;99929.31;5060947;28;20512;-58
2023/07/29 04:39:42;;;;;;;21.57;10.60;;;;;;;24.92;87.24;99933.19;5069847;28;20048;-58
2023/07/29 04:42:15;;;;;;;27.63;12.43;;;;;;;24.58;82.80;99935.03;5072984;28;20063;-58
2023/07/29 04:44:45;;;;;;;31.37;12.67;;;;;;;24.03;83.94;99933.06;5059748;28;20134;-59
2023/07/29 04:47:16;;;;;;;31.00;13.40;;;;;;;23.58;84.59;99938.25;5072969;28;20082;-57
2023/07/29 04:49:46;;;;;;;29.43;12.93;;;;;;;23.07;86.52;99903.03;5062124;28;20052;-58
2023/07/29 04:52:19;;;;;;;30.50;12.27;;;;;;;23.04;88.05;99928.09;5070639;28;20422;-58
2023/07/29 04:54:50;;;;;;;26.67;11.73;;;;;;;23.05;88.42;99921.81;5060578;28;20083;-58
2023/07/29 04:57:22;;;;;;;27.77;12.37;;;;;;;22.89;88.66;99929.16;5072629;28;20124;-57
2023/07/29 04:59:53;;;;;;;28.77;12.07;;;;;;;22.71;90.03;99934.88;5060797;28;20088;-59
2023/07/29 05:02:24;;;;;;;26.90;12.50;;;;;;;22.73;90.90;99938.28;5070464;28;20112;-58
2023/07/29 05:04:55;;;;;;;29.77;12.20;;;;;;;22.85;91.38;99941.03;5061352;28;20056;-58
2023/07/29 05:07:25;;;;;;;26.57;12.10;;;;;;;22.96;89.90;99943.75;5072130;28;20059;-58
2023/07/29 05:09:56;;;;;;;29.50;13.17;;;;;;;22.88;90.55;99943.47;5060579;28;20178;-59
2023/07/29 05:12:29;;;;;;;29.70;11.97;;;;;;;22.74;89.53;99905.38;5069204;28;20139;-58
2023/07/29 05:14:59;;;;;;;31.47;12.13;;;;;;;22.76;89.06;99943.38;5060889;28;20081;-58
2023/07/29 05:17:30;;;;;;;32.67;12.60;;;;;;;22.64;90.25;99943.41;5070548;28;20036;-58
2023/07/29 05:20:01;;;;;;;30.17;12.67;;;;;;;22.45;89.35;99954.53;5061184;28;20040;-58
2023/07/29 05:22:31;;;;;;;27.23;12.37;;;;;;;22.39;90.97;99951.34;5071682;28;20480;-58
2023/07/29 05:25:02;;;;;;;29.57;12.73;;;;;;;22.34;90.40;99952.63;5058577;28;20126;-58
2023/07/29 05:27:34;;;;;;;33.93;12.67;;;;;;;22.29;91.12;99960.94;5070238;28;20052;-59
2023/07/29 05:30:06;;;;;;;28.10;12.73;;;;;;;22.15;90.40;99953.03;5060793;28;20046;-59
2023/07/29 05:32:37;;;;;;;29.47;11.70;;;;;;;22.05;91.35;99950.16;5070450;28;20490;-59
2023/07/29 05:35:08;;;;;;;29.90;12.13;;;;;;;22.06;91.74;99940.34;5059537;28;20063;-59
2023/07/29 05:37:41;;;;;;;33.83;13.50;;;;;;;22.16;91.74;99938.75;5073077;28;20044;-58
2023/07/29 05:40:12;;;;;;;33.47;12.73;;;;;;;22.26;91.51;99934.53;5060359;28;20582;-59
2023/07/29 05:42:45;;;;;;;24.60;11.77;;;;;;;22.38;92.29;99928.34;5069602;28;20388;-59
2023/07/29 05:45:16;;;;;;;31.20;11.70;;;;;;;22.45;90.83;99922.59;5060616;28;20138;-59
2023/07/29 05:47:47;;;;;;;26.60;11.73;;;;;;;22.55;91.17;99918.31;5061742;28;20426;-59
2023/07/29 05:50:18;;;;;;;25.70;12.90;;;;;;;22.81;91.44;99919.97;5071260;28;20151;-59
2023/07/29 05:52:48;;;;;;;34.30;12.67;;;;;;;23.07;89.86;99919.88;5059181;28;20538;-59
2023/07/29 05:55:19;;;;;;;28.30;11.57;;;;;;;23.16;89.02;99913.84;5071693;28;20064;-59
2023/07/29 05:57:51;;;;;;;30.07;12.13;;;;;;;23.31;89.19;99911.00;5061481;28;20366;-59
2023/07/29 06:00:22;;;;;;;28.43;11.40;;;;;;;23.49;89.01;99906.97;5070736;28;20142;-58
2023/07/29 06:02:52;;;;;;;29.40;12.77;;;;;;;23.88;88.95;99894.22;5060769;28;20074;-57
2023/07/29 06:05:23;;;;;;;28.80;11.90;;;;;;;24.15;88.14;99895.72;5070681;28;20044;-59
2023/07/29 06:07:54;;;;;;;23.70;10.90;;;;;;;24.18;86.89;99890.13;5061007;28;20043;-58
2023/07/29 06:10:24;;;;;;;30.57;11.40;;;;;;;24.19;87.91;99886.47;5070122;28;20152;-57
2023/07/29 06:12:56;;;;;;;30.03;11.53;;;;;;;24.29;88.41;99884.78;5058693;28;20240;-58
2023/07/29 06:15:27;;;;;;;22.43;10.83;;;;;;;24.22;86.25;99862.22;5071145;28;20156;-58
2023/07/29 06:17:58;;;;;;;27.47;11.27;;;;;;;23.88;87.32;99808.84;5060408;28;20048;-58
2023/07/29 06:20:29;;;;;;;27.30;10.67;;;;;;;24.37;87.79;99885.03;5069909;28;20421;-58
2023/07/29 06:22:59;;;;;;;32.07;12.07;;;;;;;24.38;86.59;99885.88;5059460;28;20147;-58
2023/07/29 06:25:30;;;;;;;29.40;11.27;;;;;;;24.37;86.79;99879.69;5071812;28;20138;-58
2023/07/29 06:28:02;;;;;;;24.70;11.53;;;;;;;24.51;87.15;99876.78;5058779;28;20055;-58
2023/07/29 06:30:33;;;;;;;28.20;11.43;;;;;;;24.50;86.83;99879.56;5070778;28;20059;-58
2023/07/29 06:33:04;;;;;;;33.97;12.20;;;;;;;24.21;86.58;99860.50;5058643;28;20083;-58
2023/07/29 06:35:34;;;;;;;23.37;12.00;;;;;;;24.30;86.92;99897.16;5070911;28;20043;-58
2023/07/29 06:38:05;;;;;;;27.03;11.83;;;;;;;24.22;88.13;99878.25;5058719;28;20574;-58
2023/07/29 06:40:35;;;;;;;24.97;11.43;;;;;;;24.29;87.87;99895.47;5070258;28;20039;-59
2023/07/29 06:43:07;;;;;;;24.97;11.80;;;;;;;24.33;88.37;99878.22;5058777;28;20051;-59
2023/07/29 06:45:38;;;;;;;31.40;12.13;;;;;;;24.38;87.56;99881.38;5069417;28;20571;-59
2023/07/29 06:48:09;;;;;;;22.70;10.73;;;;;;;24.29;87.38;99887.47;5059073;28;20058;-59
2023/07/29 06:50:39;;;;;;;25.80;11.93;;;;;;;24.16;87.89;99882.22;5069856;28;20050;-59
2023/07/29 06:53:10;;;;;;;22.97;11.17;;;;;;;24.16;88.38;99882.22;5058812;28;20162;-59
2023/07/29 06:55:41;;;;;;;25.90;12.10;;;;;;;24.02;88.68;99875.31;5070721;28;20055;-59
2023/07/29 06:58:17;;;;;;;26.90;12.30;;;;;;;24.02;89.11;99875.31;5058802;28;20054;-59
2023/07/29 07:00:48;;;;;;;29.80;12.10;;;;;;;24.06;89.50;99876.78;5058849;28;20484;-59
2023/07/29 07:03:18;;;;;;;24.57;11.67;;;;;;;24.15;89.41;99879.69;5070309;28;20040;-59
2023/07/29 07:05:49;;;;;;;25.03;11.40;;;;;;;24.27;89.71;99874.22;5060190;28;20948;-58
2023/07/29 07:08:20;;;;;;;22.50;12.03;;;;;;;24.32;88.57;99871.19;5070138;28;20044;-58
2023/07/29 07:10:50;;;;;;;29.03;12.07;;;;;;;24.00;88.48;99818.53;5058553;28;20055;-57
2023/07/29 07:13:22;;;;;;;25.10;11.67;;;;;;;24.47;88.52;99891.34;5070266;28;20048;-60
2023/07/29 07:15:55;;;;;;;30.13;12.47;;;;;;;24.48;89.42;99893.03;5058380;28;20128;-59
2023/07/29 07:18:26;;;;;;;29.03;11.77;;;;;;;24.51;88.77;99892.81;5070326;28;20052;-58
2023/07/29 07:20:57;;;;;;;23.33;11.37;;;;;;;24.53;88.19;99885.50;5060315;28;20057;-59
2023/07/29 07:23:27;;;;;;;31.90;13.43;;;;;;;24.56;88.15;99884.41;5068702;28;20134;-59
2023/07/29 07:25:58;;;;;;;32.60;12.20;;;;;;;24.59;88.48;99888.66;5059697;28;20486;-58
2023/07/29 07:28:30;;;;;;;27.97;11.53;;;;;;;24.73;88.87;99885.72;5069939;28;20374;-58
2023/07/29 07:31:01;;;;;;;22.53;11.87;;;;;;;24.83;88.65;99885.81;5058095;28;20052;-59
2023/07/29 07:33:32;;;;;;;35.00;15.20;;;;;;;24.82;88.58;99890.31;5070068;28;20052;-59
2023/07/29 07:36:02;;;;;;;25.70;13.40;;;;;;;24.74;88.22;99882.94;5059211;28;20401;-59
2023/07/29 07:38:33;;;;;;;29.43;13.93;;;;;;;24.70;89.14;99885.97;5069492;28;20360;-64
2023/07/29 07:41:04;;;;;;;29.10;12.47;;;;;;;24.68;89.78;99893.25;5058471;28;20054;-60
2023/07/29 07:43:36;;;;;;;36.67;12.47;;;;;;;24.65;90.30;99899.69;5072829;28;20046;-60
2023/07/29 07:46:06;;;;;;;35.47;13.07;;;;;;;24.64;90.58;99898.00;5062132;28;20154;-59
2023/07/29 07:48:37;;;;;;;33.17;11.60;;;;;;;24.68;90.73;99887.91;5073106;28;20047;-57
2023/07/29 07:51:16;;;;;;;27.53;11.70;;;;;;;24.72;91.05;99897.38;5062207;28;20366;-60
2023/07/29 07:53:47;;;;;;;25.83;10.07;;;;;;;24.68;91.35;99903.94;5062294;28;20446;-59
2023/07/29 07:56:17;;;;;;;29.23;11.30;;;;;;;24.72;92.12;99908.06;5072665;28;20566;-59
2023/07/29 07:58:49;;;;;;;25.17;11.13;;;;;;;24.72;92.03;99894.72;5063650;28;20485;-59
2023/07/29 08:01:20;;;;;;;27.37;11.33;;;;;;;24.78;92.35;99894.19;5073482;28;20132;-59
2023/07/29 08:03:51;;;;;;;25.63;10.97;;;;;;;24.79;92.10;99884.34;5061923;28;20051;-59
2023/07/29 08:06:21;;;;;;;31.07;12.07;;;;;;;24.71;92.32;99871.63;5072352;28;20054;-57
2023/07/29 08:08:52;;;;;;;24.40;11.60;;;;;;;24.59;92.84;99883.31;5062470;28;20459;-58
2023/07/29 08:11:22;;;;;;;22.03;10.00;;;;;;;24.51;93.92;99882.13;5073348;28;20114;-60
2023/07/29 08:13:54;;;;;;;31.40;12.20;;;;;;;24.52;94.44;99883.81;5061619;28;20134;-57
2023/07/29 08:16:25;;;;;;;26.70;10.73;;;;;;;24.50;95.05;99880.41;5073665;28;20070;-58
2023/07/29 08:18:55;;;;;;;24.83;10.50;;;;;;;24.25;95.50;99843.28;5062221;28;20907;-59
2023/07/29 08:21:26;;;;;;;24.67;10.43;;;;;;;24.39;95.97;99861.72;5071221;28;20150;-58
2023/07/29 08:23:56;;;;;;;29.70;11.20;;;;;;;24.45;96.05;99877.28;5060631;28;20055;-58
2023/07/29 08:26:27;;;;;;;32.93;12.17;;;;;;;24.50;96.49;99875.06;5073650;28;20066;-58
2023/07/29 08:28:59;;;;;;;29.93;11.90;;;;;;;24.57;96.32;99869.25;5063437;28;20386;-59
2023/07/29 08:31:30;;;;;;;29.90;11.23;;;;;;;24.68;96.35;99861.19;5072690;28;20094;-58
2023/07/29 08:34:03;;;;;;;25.13;10.97;;;;;;;24.81;95.81;99867.25;5061079;28;20036;-59
2023/07/29 08:36:54;;;;;;;24.30;10.67;;;;;;;24.88;95.82;99868.41;5071634;28;20075;-59
2023/07/29 08:39:33;;;;;;;24.67;11.10;;;;;;;24.96;95.40;99882.03;5071758;28;20046;-58
2023/07/29 08:42:10;;;;;;;27.03;12.10;;;;;;;25.06;94.86;99867.88;5060010;28;20908;-58
2023/07/29 08:44:44;;;;;;;27.87;12.23;;;;;;;25.16;93.95;99871.47;5071778;28;20047;-58
2023/07/29 08:47:15;;;;;;;24.57;11.90;;;;;;;25.14;93.59;99868.09;5061355;28;20354;-58
2023/07/29 08:49:47;;;;;;;27.80;11.13;;;;;;;25.17;93.59;99873.22;5060755;28;20112;-58
2023/07/29 08:52:18;;;;;;;27.90;11.30;;;;;;;25.25;93.07;99865.41;5070797;28;20522;-58
2023/07/29 08:54:49;;;;;;;22.13;10.80;;;;;;;25.25;92.87;99860.06;5060499;28;20341;-59
2023/07/29 08:57:20;;;;;;;25.77;11.57;;;;;;;25.20;92.97;99859.59;5072659;28;20079;-59
2023/07/29 08:59:52;;;;;;;29.07;11.83;;;;;;;25.16;93.22;99852.75;5061437;28;20044;-58
2023/07/29 09:02:28;;;;;;;28.67;11.50;;;;;;;24.93;93.99;99827.97;5072339;28;20052;-58
2023/07/29 09:05:03;;;;;;;29.03;11.47;;;;;;;25.08;94.76;99852.56;5060880;28;20358;-59
2023/07/29 09:07:38;;;;;;;29.93;12.33;;;;;;;25.05;95.30;99855.50;5071997;28;20063;-59
2023/07/29 09:10:11;;;;;;;29.20;11.37;;;;;;;25.00;95.60;99855.88;5060984;28;20188;-58
2023/07/29 09:12:43;;;;;;;28.23;10.73;;;;;;;24.88;96.13;99852.38;5072274;28;20149;-58
2023/07/29 09:15:27;;;;;;;23.33;11.03;;;;;;;24.79;96.93;99853.16;5061401;28;20079;-57
2023/07/29 09:17:59;;;;;;;23.27;10.10;;;;;;;24.56;97.82;99832.81;5061359;28;20130;-57
2023/07/29 09:20:47;;;;;;;27.33;11.10;;;;;;;24.63;98.63;99852.72;5054059;28;20047;-58
2023/07/29 09:23:28;;;;;;;47.40;13.50;;;;;;;24.58;98.91;99854.91;5071865;28;20148;-58
2023/07/29 09:26:06;;;;;;;39.57;13.50;;;;;;;24.51;99.56;99839.41;5061208;28;20050;-58
2023/07/29 09:28:46;;;;;;;39.70;14.17;;;;;;;24.14;99.79;99806.78;5070017;28;20136;-58
2023/07/29 09:31:26;;;;;;;40.83;14.10;;;;;;;24.01;100.00;99804.25;5059370;28;20513;-60
2023/07/29 09:34:04;;;;;;;31.93;12.60;;;;;;;24.15;100.00;99823.63;5061385;28;20040;-59
2023/07/29 09:36:37;;;;;;;44.03;13.50;;;;;;;24.31;100.00;99853.47;5070751;28;20433;-59
2023/07/29 09:39:15;;;;;;;40.43;13.47;;;;;;;24.31;100.00;99858.78;5061343;28;20059;-59
2023/07/29 09:42:08;;;;;;;30.30;13.33;;;;;;;24.25;100.00;99854.81;5059743;28;20134;-59
2023/07/29 09:45:45;;;;;;;38.87;13.50;;;;;;;24.20;100.00;99867.66;5071466;28;20046;-59
2023/07/29 09:48:25;;;;;;;39.55;14.60;;;;;;;23.84;100.00;99820.75;5056256;28;20036;-59
2023/07/29 09:51:11;;;;;;;42.37;13.90;;;;;;;24.09;100.00;99870.34;5061058;28;20615;-59
2023/07/29 09:53:56;;;;;;;43.63;14.70;;;;;;;24.09;100.00;99865.88;5056510;28;20067;-59
2023/07/29 09:56:33;;;;;;;39.63;14.07;;;;;;;24.01;100.00;99852.28;5071126;28;20063;-59
2023/07/29 09:59:28;;;;;;;42.83;15.10;;;;;;;24.05;100.00;99864.41;5061159;28;20140;-59
2023/07/29 10:01:58;;;;;;;42.20;12.80;;;;;;;24.04;100.00;99870.72;5059207;28;20105;-59
2023/07/29 10:04:32;;;;;;;42.90;12.37;;;;;;;23.92;100.00;99853.00;5071353;28;20454;-59
2023/07/29 10:07:05;;;;;;;40.83;12.37;;;;;;;23.83;100.00;99848.38;5059967;28;20194;-59
2023/07/29 10:09:40;;;;;;;32.43;12.80;;;;;;;23.73;100.00;99852.72;5069332;28;20122;-60
2023/07/29 10:12:14;;;;;;;26.73;12.03;;;;;;;23.62;100.00;99846.38;5059434;28;20048;-59
2023/07/29 10:14:55;;;;;;;24.13;12.10;;;;;;;23.59;100.00;99846.63;5059395;28;20051;-58
2023/07/29 10:17:27;;;;;;;25.63;12.40;;;;;;;23.56;100.00;99841.50;5067005;28;20131;-59
2023/07/29 10:20:05;;;;;;;29.93;12.10;;;;;;;23.53;100.00;99836.41;5060334;28;20052;-59
2023/07/29 10:22:42;;;;;;;25.33;12.40;;;;;;;23.51;100.00;99845.50;5069081;28;20150;-59
2023/07/29 10:25:23;;;;;;;24.70;12.20;;;;;;;23.07;100.00;99786.66;5058862;28;20371;-59
2023/07/29 10:27:58;;;;;;;25.10;12.60;;;;;;;23.36;100.00;99851.03;5061056;28;20137;-59
2023/07/29 10:30:30;;;;;;;23.33;11.30;;;;;;;23.28;100.00;99858.78;5070245;28;20492;-59
2023/07/29 10:33:04;;;;;;;29.17;13.53;;;;;;;23.31;100.00;99879.03;5059899;28;20059;-59
2023/07/29 10:35:38;;;;;;;26.97;13.30;;;;;;;23.29;100.00;99880.94;5070940;28;20348;-59
2023/07/29 10:38:14;;;;;;;26.77;14.13;;;;;;;23.39;100.00;99892.66;5058974;28;20043;-59
2023/07/29 10:40:55;;;;;;;35.13;16.83;;;;;;;22.88;100.00;99796.94;5063926;28;20139;-58
2023/07/29 10:43:33;;;;;;;31.13;14.53;;;;;;;23.37;100.00;99884.75;5072074;28;20097;-59
2023/07/29 10:46:18;;;;;;;27.85;11.95;;;;;;;23.42;100.00;99898.56;5060006;28;20049;-59
2023/07/29 10:48:59;;;;;;;28.83;11.00;;;;;;;23.42;100.00;99908.41;5058537;28;20043;-60
2023/07/29 10:51:37;;;;;;;20.87;10.47;;;;;;;23.38;100.00;99906.91;5070782;28;20390;-59
2023/07/29 10:54:14;;;;;;;17.13;9.70;;;;;;;23.41;100.00;99918.22;5059768;28;20043;-59
2023/07/29 10:56:50;;;;;;;23.27;10.03;;;;;;;23.42;100.00;99916.41;5062649;28;20476;-60
2023/07/29 10:59:39;;;;;;;28.20;10.60;;;;;;;23.42;100.00;99924.41;5069149;28;20202;-59
2023/07/29 11:02:22;;;;;;;26.37;10.70;;;;;;;23.18;100.00;99879.94;5059943;28;20040;-59
2023/07/29 11:04:56;;;;;;;21.90;10.67;;;;;;;23.07;100.00;99866.59;5057925;28;20465;-60
2023/07/29 11:07:32;;;;;;;25.67;10.97;;;;;;;23.31;100.00;99911.00;5070993;28;20476;-60
2023/07/29 11:10:08;;;;;;;19.47;10.30;;;;;;;23.34;100.00;99921.44;5058467;28;20895;-59
2023/07/29 11:12:39;;;;;;;20.77;10.83;;;;;;;23.22;100.00;99908.06;5067480;28;20488;-60
2023/07/29 11:15:24;;;;;;;23.77;10.87;;;;;;;23.03;100.00;99883.75;5058578;28;20043;-59
2023/07/29 11:17:56;;;;;;;22.00;10.03;;;;;;;23.27;100.00;99928.22;5060541;28;20051;-60
2023/07/29 11:20:37;;;;;;;18.20;10.30;;;;;;;23.31;100.00;99935.00;5073575;28;20477;-60
2023/07/29 11:23:14;;;;;;;19.03;10.07;;;;;;;23.27;100.00;99922.88;5046087;28;20056;-58
2023/07/29 11:25:45;;;;;;;19.07;10.50;;;;;;;23.23;100.00;99909.75;5064377;28;20098;-58
2023/07/29 11:28:18;;;;;;;16.93;10.77;;;;;;;23.20;100.00;99903.81;5073618;28;20056;-58
2023/07/29 11:30:49;;;;;;;21.20;10.33;;;;;;;23.18;100.00;99906.59;5063357;28;20401;-59
2023/07/29 11:33:29;;;;;;;26.63;10.97;;;;;;;22.97;100.00;99881.53;5074676;28;20855;-58
2023/07/29 11:36:00;;;;;;;24.33;10.47;;;;;;;23.13;100.00;99908.75;5062563;28;20043;-59
2023/07/29 11:38:37;;;;;;;22.80;10.67;;;;;;;23.11;100.00;99910.69;5074369;28;20459;-58
2023/07/29 11:41:09;;;;;;;21.23;10.63;;;;;;;23.07;100.00;99909.22;5063956;28;20473;-58
2023/07/29 11:43:42;;;;;;;18.90;10.67;;;;;;;23.07;100.00;99909.22;5074678;28;20059;-58
2023/07/29 11:46:13;;;;;;;19.63;11.37;;;;;;;23.00;100.00;99913.31;5064275;28;20366;-59